createdAt,value
2023-03-15T00:01:40.737Z,100.00
2023-03-15T00:04:09.314Z,100.00
2023-03-15T00:06:37.837Z,100.00
2023-03-15T00:09:06.418Z,100.00
2023-03-15T00:11:35.276Z,100.00
2023-03-15T00:14:06.247Z,100.00
2023-03-15T00:16:34.733Z,100.00
2023-03-15T00:19:03.344Z,100.00
2023-03-15T00:21:31.697Z,100.00
2023-03-15T00:24:00.446Z,100.00
2023-03-15T00:26:29.355Z,100.00
2023-03-15T00:28:59.814Z,100.00
2023-03-15T00:31:30.872Z,100.00
2023-03-15T00:33:59.948Z,100.00
2023-03-15T00:36:28.349Z,100.00
2023-03-15T00:38:57.833Z,100.00
2023-03-15T00:41:26.605Z,100.00
2023-03-15T00:43:55.043Z,100.00
2023-03-15T00:46:23.418Z,100.00
2023-03-15T00:48:53.760Z,100.00
2023-03-15T00:51:24.161Z,100.00
2023-03-15T00:53:54.725Z,100.00
2023-03-15T00:56:26.214Z,100.00
2023-03-15T00:58:54.941Z,100.00
2023-03-15T01:01:26.161Z,100.00
2023-03-15T01:03:56.776Z,100.00
2023-03-15T01:06:29.364Z,100.00
2023-03-15T01:09:01.865Z,100.00
2023-03-15T01:11:30.433Z,100.00
2023-03-15T01:14:00.531Z,100.00
2023-03-15T01:16:29.823Z,100.00
2023-03-15T01:18:59.721Z,100.00
2023-03-15T01:21:29.523Z,100.00
2023-03-15T01:23:58.040Z,100.00
2023-03-15T01:26:27.900Z,100.00
2023-03-15T01:28:56.837Z,100.00
2023-03-15T01:31:30.445Z,100.00
2023-03-15T01:34:01.061Z,100.00
2023-03-15T01:36:39.724Z,100.00
2023-03-15T01:39:08.147Z,100.00
2023-03-15T01:41:42.738Z,100.00
2023-03-15T01:44:15.019Z,100.00
2023-03-15T01:46:45.340Z,100.00
2023-03-15T01:49:27.075Z,100.00
2023-03-15T01:51:59.781Z,100.00
2023-03-15T01:54:38.411Z,100.00
2023-03-15T01:57:11.897Z,100.00
2023-03-15T01:59:44.323Z,100.00
2023-03-15T02:02:14.875Z,100.00
2023-03-15T02:04:50.500Z,100.00
2023-03-15T02:07:23.088Z,100.00
2023-03-15T02:09:58.611Z,100.00
2023-03-15T02:12:28.842Z,100.00
2023-03-15T02:14:59.428Z,100.00
2023-03-15T02:17:36.993Z,100.00
2023-03-15T02:20:19.939Z,100.00
2023-03-15T02:22:55.936Z,100.00
2023-03-15T02:25:36.450Z,100.00
2023-03-15T02:28:09.720Z,100.00
2023-03-15T02:30:38.146Z,100.00
2023-03-15T02:33:14.087Z,100.00
2023-03-15T02:35:42.680Z,100.00
2023-03-15T02:38:10.964Z,100.00
2023-03-15T02:40:39.890Z,100.00
2023-03-15T02:43:15.110Z,100.00
2023-03-15T02:45:43.952Z,100.00
2023-03-15T02:48:14.140Z,100.00
2023-03-15T02:50:42.556Z,100.00
2023-03-15T02:53:12.520Z,100.00
2023-03-15T02:55:41.044Z,100.00
2023-03-15T02:58:10.950Z,100.00
2023-03-15T03:00:39.864Z,100.00
2023-03-15T03:03:09.110Z,100.00
2023-03-15T03:05:37.400Z,100.00
2023-03-15T03:08:06.298Z,100.00
2023-03-15T03:10:35.081Z,100.00
2023-03-15T03:13:03.597Z,100.00
2023-03-15T03:15:38.026Z,100.00
2023-03-15T03:18:07.082Z,100.00
2023-03-15T03:20:35.778Z,100.00
2023-03-15T03:23:06.281Z,100.00
2023-03-15T03:25:36.748Z,100.00
2023-03-15T03:28:05.255Z,100.00
2023-03-15T03:30:37.900Z,100.00
2023-03-15T03:33:07.350Z,100.00
2023-03-15T03:35:35.710Z,100.00
2023-03-15T03:38:04.311Z,100.00
2023-03-15T03:40:38.089Z,100.00
2023-03-15T03:43:08.881Z,100.00
2023-03-15T03:45:38.751Z,100.00
2023-03-15T03:48:09.119Z,100.00
2023-03-15T03:50:37.559Z,100.00
2023-03-15T03:53:06.054Z,100.00
2023-03-15T03:55:36.688Z,100.00
2023-03-15T03:58:05.107Z,100.00
2023-03-15T04:00:43.296Z,100.00
2023-03-15T04:03:12.868Z,100.00
2023-03-15T04:05:47.610Z,100.00
2023-03-15T04:08:20.164Z,100.00
2023-03-15T04:10:53.524Z,100.00
2023-03-15T04:13:23.966Z,100.00
2023-03-15T04:15:58.001Z,100.00
2023-03-15T04:18:30.923Z,100.00
2023-03-15T04:20:59.699Z,100.00
2023-03-15T04:23:28.682Z,100.00
2023-03-15T04:26:20.542Z,100.00
2023-03-15T04:29:00.505Z,100.00
2023-03-15T04:31:50.392Z,100.00
2023-03-15T04:34:28.587Z,100.00
2023-03-15T04:37:07.339Z,100.00
2023-03-15T04:39:56.055Z,100.00
2023-03-15T04:42:51.767Z,100.00
2023-03-15T04:45:33.466Z,100.00
2023-03-15T04:48:23.819Z,100.00
2023-03-15T04:51:18.269Z,100.00
2023-03-15T04:54:06.945Z,100.00
2023-03-15T04:57:09.233Z,100.00
2023-03-15T04:59:47.560Z,100.00
2023-03-15T05:02:55.024Z,100.00
2023-03-15T05:05:50.487Z,100.00
2023-03-15T05:08:39.518Z,100.00
2023-03-15T05:11:27.492Z,100.00
2023-03-15T05:14:19.188Z,100.00
2023-03-15T05:17:07.300Z,100.00
2023-03-15T05:19:54.653Z,100.00
2023-03-15T05:22:44.680Z,100.00
2023-03-15T05:25:39.290Z,100.00
2023-03-15T05:28:40.677Z,100.00
2023-03-15T05:31:37.100Z,100.00
2023-03-15T05:34:29.423Z,100.00
2023-03-15T05:37:21.410Z,100.00
2023-03-15T05:40:17.947Z,100.00
2023-03-15T05:42:57.891Z,100.00
2023-03-15T05:45:53.162Z,100.00
2023-03-15T05:57:50.921Z,100.00
2023-03-15T06:00:29.346Z,100.00
2023-03-15T06:03:05.057Z,100.00
2023-03-15T06:05:45.674Z,100.00
2023-03-15T06:08:19.251Z,100.00
2023-03-15T06:10:51.084Z,100.00
2023-03-15T06:13:21.138Z,100.00
2023-03-15T06:15:49.908Z,100.00
2023-03-15T06:18:20.621Z,100.00
2023-03-15T06:20:51.049Z,100.00
2023-03-15T06:23:21.452Z,100.00
2023-03-15T06:25:50.851Z,100.00
2023-03-15T06:28:22.435Z,100.00
2023-03-15T06:30:56.249Z,100.00
2023-03-15T06:33:31.972Z,100.00
2023-03-15T06:36:01.875Z,100.00
2023-03-15T06:38:31.396Z,100.00
2023-03-15T06:41:02.427Z,100.00
2023-03-15T06:43:33.153Z,100.00
2023-03-15T06:46:03.055Z,99.46
2023-03-15T06:48:34.014Z,99.69
2023-03-15T06:51:04.276Z,100.00
2023-03-15T06:53:34.889Z,100.00
2023-03-15T06:56:03.639Z,99.62
2023-03-15T06:58:33.660Z,99.18
2023-03-15T07:01:02.381Z,98.96
2023-03-15T07:03:31.342Z,98.17
2023-03-15T07:06:00.097Z,97.38
2023-03-15T07:08:28.738Z,97.53
2023-03-15T07:10:57.848Z,97.62
2023-03-15T07:13:26.837Z,97.32
2023-03-15T07:15:58.091Z,96.61
2023-03-15T07:18:26.988Z,96.17
2023-03-15T07:20:59.299Z,96.72
2023-03-15T07:23:28.798Z,96.05
2023-03-15T07:25:57.358Z,96.22
2023-03-15T07:28:27.983Z,96.43
2023-03-15T07:31:00.299Z,95.49
2023-03-15T07:33:31.293Z,95.95
2023-03-15T07:35:59.962Z,96.49
2023-03-15T07:38:30.153Z,96.81
2023-03-15T07:40:59.350Z,95.87
2023-03-15T07:43:28.121Z,96.06
2023-03-15T07:46:09.833Z,95.98
2023-03-15T07:48:38.843Z,95.53
2023-03-15T07:51:07.776Z,95.48
2023-03-15T07:53:36.675Z,95.39
2023-03-15T07:56:07.027Z,94.90
2023-03-15T07:58:35.852Z,96.59
2023-03-15T08:01:04.756Z,95.53
2023-03-15T08:03:34.930Z,94.08
2023-03-15T08:06:04.459Z,93.79
2023-03-15T08:08:33.046Z,93.58
2023-03-15T08:11:02.126Z,92.97
2023-03-15T08:13:30.832Z,92.63
2023-03-15T08:15:59.385Z,90.40
2023-03-15T08:18:29.058Z,90.60
2023-03-15T08:21:00.191Z,90.25
2023-03-15T08:23:29.028Z,90.36
2023-03-15T08:25:58.136Z,90.37
2023-03-15T08:28:26.743Z,89.99
2023-03-15T08:30:55.366Z,91.23
2023-03-15T08:33:24.228Z,88.72
2023-03-15T08:35:56.617Z,88.40
2023-03-15T08:38:26.792Z,87.28
2023-03-15T08:40:57.793Z,88.03
2023-03-15T08:43:26.515Z,86.87
2023-03-15T08:46:01.001Z,87.80
2023-03-15T08:48:30.436Z,87.98
2023-03-15T08:51:04.347Z,88.74
2023-03-15T08:53:34.658Z,87.75
2023-03-15T08:56:04.179Z,87.75
2023-03-15T08:58:33.198Z,86.26
2023-03-15T09:01:01.986Z,83.50
2023-03-15T09:03:32.904Z,84.19
2023-03-15T09:06:02.049Z,83.77
2023-03-15T09:08:33.559Z,84.22
2023-03-15T09:11:03.983Z,84.94
2023-03-15T09:13:32.764Z,84.29
2023-03-15T09:16:01.526Z,83.18
2023-03-15T09:18:29.954Z,85.41
2023-03-15T09:20:58.825Z,85.91
2023-03-15T09:23:27.659Z,84.30
2023-03-15T09:25:56.321Z,84.78
2023-03-15T09:28:26.848Z,82.60
2023-03-15T09:30:56.319Z,84.31
2023-03-15T09:33:26.494Z,83.12
2023-03-15T09:35:55.371Z,83.31
2023-03-15T09:38:24.832Z,80.98
2023-03-15T09:40:58.956Z,78.75
2023-03-15T09:43:55.767Z,76.66
2023-03-15T09:46:30.163Z,81.39
2023-03-15T09:49:05.905Z,79.36
2023-03-15T09:51:40.877Z,80.26
2023-03-15T09:54:14.160Z,81.52
2023-03-15T09:56:50.306Z,78.80
2023-03-15T09:59:23.062Z,81.99
2023-03-15T10:01:54.849Z,80.10
2023-03-15T10:04:29.964Z,80.42
2023-03-15T10:07:01.108Z,79.89
2023-03-15T10:09:34.744Z,75.43
2023-03-15T10:12:05.973Z,77.71
2023-03-15T10:14:54.875Z,75.82
2023-03-15T10:17:39.095Z,74.96
2023-03-15T10:20:13.515Z,77.03
2023-03-15T10:22:50.380Z,76.81
2023-03-15T10:25:25.452Z,74.03
2023-03-15T10:27:57.392Z,71.41
2023-03-15T10:30:31.090Z,74.16
2023-03-15T10:33:05.941Z,73.41
2023-03-15T10:35:35.166Z,74.36
2023-03-15T10:38:03.942Z,73.23
2023-03-15T10:40:44.761Z,69.95
2023-03-15T10:43:22.082Z,67.73
2023-03-15T10:46:02.927Z,73.52
2023-03-15T10:48:33.244Z,77.36
2023-03-15T10:51:06.105Z,74.90
2023-03-15T10:53:34.991Z,74.06
2023-03-15T10:56:07.267Z,70.32
2023-03-15T10:58:43.798Z,69.25
2023-03-15T11:01:24.658Z,70.88
2023-03-15T11:04:08.074Z,69.03
2023-03-15T11:06:42.999Z,67.25
2023-03-15T11:09:14.803Z,70.79
2023-03-15T11:12:07.100Z,61.93
2023-03-15T11:14:36.651Z,59.61
2023-03-15T11:17:10.233Z,70.01
2023-03-15T11:19:43.042Z,68.90
2023-03-15T11:22:15.080Z,66.98
2023-03-15T11:24:44.240Z,69.39
2023-03-15T11:27:15.506Z,72.55
2023-03-15T11:29:48.934Z,74.64
2023-03-15T11:32:22.046Z,74.02
2023-03-15T11:34:58.385Z,71.77
2023-03-15T11:37:34.002Z,71.93
2023-03-15T11:40:13.216Z,72.56
2023-03-15T11:42:49.754Z,74.96
2023-03-15T11:45:25.437Z,75.45
2023-03-15T11:47:59.313Z,75.20
2023-03-15T11:50:28.874Z,76.09
2023-03-15T11:53:03.044Z,76.45
2023-03-15T11:55:34.272Z,77.47
2023-03-15T11:58:30.312Z,71.53
2023-03-15T12:01:03.620Z,77.05
2023-03-15T12:03:38.073Z,78.81
2023-03-15T12:06:38.740Z,74.60
2023-03-15T12:09:47.197Z,72.95
2023-03-15T12:12:38.815Z,70.62
2023-03-15T12:15:35.114Z,74.84
2023-03-15T12:18:07.062Z,77.52
2023-03-15T12:20:38.123Z,69.55
2023-03-15T12:23:23.017Z,74.14
2023-03-15T12:25:57.397Z,77.09
2023-03-15T12:28:31.755Z,77.27
2023-03-15T12:31:03.097Z,75.24
2023-03-15T12:33:33.391Z,69.58
2023-03-15T12:36:10.898Z,73.70
2023-03-15T12:38:42.001Z,75.74
2023-03-15T12:41:31.324Z,75.81
2023-03-15T12:44:20.473Z,72.55
2023-03-15T12:46:58.077Z,71.36
2023-03-15T12:49:37.060Z,72.67
2023-03-15T12:52:26.607Z,73.55
2023-03-15T12:55:02.450Z,74.39
2023-03-15T12:57:37.161Z,73.77
2023-03-15T13:00:15.302Z,74.63
2023-03-15T13:02:49.862Z,74.87
2023-03-15T13:05:22.191Z,73.84
2023-03-15T13:07:56.934Z,73.19
2023-03-15T13:10:38.046Z,72.54
2023-03-15T13:13:16.922Z,71.65
2023-03-15T13:15:56.058Z,74.17
2023-03-15T13:18:28.543Z,73.85
2023-03-15T13:21:10.194Z,74.08
2023-03-15T13:23:43.980Z,68.38
2023-03-15T13:26:33.412Z,70.12
2023-03-15T13:29:06.621Z,73.80
2023-03-15T13:31:35.749Z,74.23
2023-03-15T13:34:13.736Z,73.63
2023-03-15T13:36:46.319Z,74.60
2023-03-15T13:39:23.519Z,72.38
2023-03-15T13:41:59.009Z,72.28
2023-03-15T13:44:31.110Z,74.33
2023-03-15T13:47:00.967Z,73.24
2023-03-15T13:49:33.244Z,71.35
2023-03-15T13:52:05.603Z,72.20
2023-03-15T13:54:35.523Z,61.30
2023-03-15T13:57:07.579Z,67.41
2023-03-15T13:59:40.980Z,71.18
2023-03-15T14:02:17.545Z,69.36
2023-03-15T14:04:52.764Z,71.78
2023-03-15T14:07:30.900Z,72.40
2023-03-15T14:10:23.184Z,70.54
2023-03-15T14:12:52.794Z,74.33
2023-03-15T14:15:25.055Z,74.44
2023-03-15T14:18:02.599Z,71.89
2023-03-15T14:20:37.137Z,71.83
2023-03-15T14:23:07.804Z,73.91
2023-03-15T14:25:38.473Z,74.04
2023-03-15T14:28:07.952Z,74.03
2023-03-15T14:30:39.017Z,74.01
2023-03-15T14:33:09.036Z,74.22
2023-03-15T14:35:46.300Z,73.29
2023-03-15T14:38:22.529Z,73.68
2023-03-15T14:40:54.155Z,74.01
2023-03-15T14:43:23.738Z,74.12
2023-03-15T14:45:53.070Z,74.16
2023-03-15T14:48:28.075Z,72.75
2023-03-15T14:50:57.720Z,74.45
2023-03-15T14:53:28.185Z,75.15
2023-03-15T14:55:58.978Z,74.46
2023-03-15T14:58:27.648Z,73.68
2023-03-15T15:00:58.420Z,74.35
2023-03-15T15:03:35.175Z,73.31
2023-03-15T15:06:04.472Z,74.44
2023-03-15T15:08:33.799Z,74.17
2023-03-15T15:11:03.929Z,74.52
2023-03-15T15:13:33.198Z,75.13
2023-03-15T15:16:02.087Z,74.80
2023-03-15T15:18:32.975Z,74.58
2023-03-15T15:21:03.925Z,75.15
2023-03-15T15:23:47.432Z,74.76
2023-03-15T15:26:27.571Z,75.65
2023-03-15T15:28:56.764Z,74.63
2023-03-15T15:31:27.218Z,75.17
2023-03-15T15:33:57.499Z,75.27
2023-03-15T15:36:29.828Z,75.49
2023-03-15T15:39:01.560Z,75.18
2023-03-15T15:41:32.775Z,75.72
2023-03-15T15:44:01.788Z,75.08
2023-03-15T15:46:30.485Z,75.81
2023-03-15T15:48:59.759Z,76.23
2023-03-15T15:51:30.234Z,76.43
2023-03-15T15:54:00.530Z,76.19
2023-03-15T15:56:34.947Z,76.72
2023-03-15T15:59:05.079Z,77.06
2023-03-15T16:01:35.458Z,76.68
2023-03-15T16:04:04.726Z,76.93
2023-03-15T16:06:33.819Z,77.34
2023-03-15T16:09:03.298Z,78.29
2023-03-15T16:11:33.611Z,78.08
2023-03-15T16:14:02.949Z,78.11
2023-03-15T16:16:31.686Z,78.69
2023-03-15T16:19:00.372Z,79.18
2023-03-15T16:21:33.994Z,79.13
2023-03-15T16:24:07.626Z,79.02
2023-03-15T16:26:40.754Z,80.08
2023-03-15T16:29:19.111Z,80.36
2023-03-15T16:31:48.872Z,81.55
2023-03-15T16:34:19.088Z,81.73
2023-03-15T16:36:49.981Z,81.93
2023-03-15T16:39:19.724Z,82.69
2023-03-15T16:41:52.381Z,82.76
2023-03-15T16:44:22.148Z,82.83
2023-03-15T16:46:51.217Z,83.59
2023-03-15T16:49:19.741Z,84.09
2023-03-15T16:51:52.524Z,84.47
2023-03-15T16:54:38.464Z,85.42
2023-03-15T16:57:17.594Z,84.98
2023-03-15T16:59:46.084Z,85.92
2023-03-15T17:02:20.078Z,85.67
2023-03-15T17:04:49.033Z,86.05
2023-03-15T17:07:18.711Z,86.68
2023-03-15T17:09:49.868Z,86.91
2023-03-15T17:12:23.880Z,86.58
2023-03-15T17:14:53.361Z,86.85
2023-03-15T17:17:21.861Z,87.75
2023-03-15T17:19:52.876Z,88.25
2023-03-15T17:22:22.684Z,88.44
2023-03-15T17:24:51.263Z,88.75
2023-03-15T17:27:27.533Z,89.21
2023-03-15T17:29:56.279Z,89.31
2023-03-15T17:32:25.137Z,89.67
2023-03-15T17:34:59.544Z,90.61
2023-03-15T17:37:33.948Z,91.00
2023-03-15T17:40:11.824Z,91.45
2023-03-15T17:42:41.710Z,91.26
2023-03-15T17:45:16.849Z,91.59
2023-03-15T17:47:45.634Z,91.63
2023-03-15T17:50:14.736Z,92.21
2023-03-15T17:52:45.182Z,92.74
2023-03-15T17:55:18.712Z,93.18
2023-03-15T17:57:55.012Z,93.41
2023-03-15T18:00:25.105Z,93.81
2023-03-15T18:02:56.679Z,93.73
2023-03-15T18:05:26.242Z,92.75
2023-03-15T18:07:59.325Z,93.37
2023-03-15T18:10:35.491Z,93.22
2023-03-15T18:13:05.694Z,93.35
2023-03-15T18:15:34.285Z,93.74
2023-03-15T18:18:06.190Z,93.75
2023-03-15T18:20:34.960Z,94.01
2023-03-15T18:23:04.574Z,94.21
2023-03-15T18:25:35.743Z,94.15
2023-03-15T18:28:07.104Z,94.90
2023-03-15T18:30:36.131Z,95.45
2023-03-15T18:33:06.003Z,95.65
2023-03-15T18:35:36.799Z,96.21
2023-03-15T18:38:06.292Z,97.10
2023-03-15T18:40:35.550Z,97.32
2023-03-15T18:43:05.812Z,98.25
2023-03-15T18:45:36.894Z,98.34
2023-03-15T18:48:05.972Z,98.92
2023-03-15T18:50:35.454Z,99.40
2023-03-15T18:53:06.256Z,99.56
2023-03-15T18:55:35.930Z,99.52
2023-03-15T18:58:09.130Z,99.29
2023-03-15T19:00:38.213Z,99.16
2023-03-15T19:03:07.663Z,99.51
2023-03-15T19:05:39.237Z,100.00
2023-03-15T19:08:08.036Z,100.00
2023-03-15T19:10:36.590Z,100.00
2023-03-15T19:13:06.610Z,100.00
2023-03-15T19:15:36.860Z,100.00
2023-03-15T19:18:05.839Z,100.00
2023-03-15T19:20:36.664Z,100.00
2023-03-15T19:23:05.082Z,100.00
2023-03-15T19:25:34.959Z,100.00
2023-03-15T19:28:03.711Z,100.00
2023-03-15T19:30:33.645Z,100.00
2023-03-15T19:33:02.337Z,100.00
2023-03-15T19:35:32.592Z,100.00
2023-03-15T19:38:02.738Z,100.00
2023-03-15T19:40:31.327Z,100.00
2023-03-15T19:42:59.778Z,100.00
2023-03-15T19:45:28.272Z,100.00
2023-03-15T19:47:58.856Z,100.00
2023-03-15T19:50:31.127Z,100.00
2023-03-15T19:53:00.130Z,100.00
2023-03-15T19:55:31.440Z,100.00
2023-03-15T19:58:00.174Z,100.00
2023-03-15T20:00:29.173Z,100.00
2023-03-15T20:02:59.124Z,100.00
2023-03-15T20:05:27.880Z,100.00
2023-03-15T20:07:56.539Z,100.00
2023-03-15T20:10:25.268Z,100.00
2023-03-15T20:12:59.080Z,100.00
2023-03-15T20:15:29.399Z,100.00
2023-03-15T20:17:59.814Z,100.00
2023-03-15T20:20:28.749Z,100.00
2023-03-15T20:22:57.123Z,100.00
2023-03-15T20:25:26.027Z,100.00
2023-03-15T20:27:54.481Z,100.00
2023-03-15T20:30:23.420Z,100.00
2023-03-15T20:32:52.605Z,100.00
2023-03-15T20:35:23.467Z,100.00
2023-03-15T20:37:53.693Z,100.00
2023-03-15T20:40:23.134Z,100.00
2023-03-15T20:42:52.438Z,100.00
2023-03-15T20:45:21.368Z,100.00
2023-03-15T20:47:50.090Z,100.00
2023-03-15T20:50:19.048Z,100.00
2023-03-15T20:52:50.052Z,100.00
2023-03-15T20:55:18.833Z,100.00
2023-03-15T20:57:47.695Z,100.00
2023-03-15T21:00:20.117Z,100.00
2023-03-15T21:02:49.326Z,100.00
2023-03-15T21:05:18.768Z,100.00
2023-03-15T21:07:47.570Z,100.00
2023-03-15T21:10:18.203Z,100.00
2023-03-15T21:12:47.146Z,100.00
2023-03-15T21:15:18.089Z,100.00
2023-03-15T21:17:48.860Z,100.00
2023-03-15T21:20:17.716Z,100.00
2023-03-15T21:22:47.294Z,100.00
2023-03-15T21:25:18.201Z,100.00
2023-03-15T21:27:47.062Z,100.00
2023-03-15T21:30:16.320Z,100.00
2023-03-15T21:32:45.609Z,100.00
2023-03-15T21:35:14.751Z,100.00
2023-03-15T21:37:43.279Z,100.00
2023-03-15T21:40:14.197Z,100.00
2023-03-15T21:42:47.864Z,100.00
2023-03-15T21:45:17.589Z,100.00
2023-03-15T21:47:47.140Z,100.00
2023-03-15T21:50:16.520Z,100.00
2023-03-15T21:52:46.838Z,100.00
2023-03-15T21:55:16.706Z,100.00
2023-03-15T21:57:47.060Z,100.00
2023-03-15T22:00:18.836Z,100.00
2023-03-15T22:02:49.086Z,100.00
2023-03-15T22:05:18.280Z,100.00
2023-03-15T22:07:47.059Z,100.00
2023-03-15T22:10:16.101Z,100.00
2023-03-15T22:12:44.765Z,100.00
2023-03-15T22:15:15.599Z,100.00
2023-03-15T22:17:45.311Z,100.00
2023-03-15T22:20:16.997Z,100.00
2023-03-15T22:22:46.083Z,100.00
2023-03-15T22:25:16.353Z,100.00
2023-03-15T22:27:45.314Z,100.00
2023-03-15T22:30:17.919Z,100.00
2023-03-15T22:32:47.551Z,100.00
2023-03-15T22:35:18.120Z,100.00
2023-03-15T22:37:46.678Z,100.00
2023-03-15T22:40:15.804Z,100.00
2023-03-15T22:42:47.077Z,100.00
2023-03-15T22:45:17.827Z,100.00
2023-03-15T22:47:46.404Z,100.00
2023-03-15T22:50:16.502Z,100.00
2023-03-15T22:52:47.011Z,100.00
2023-03-15T22:55:15.514Z,100.00
2023-03-15T22:57:44.341Z,100.00
2023-03-15T23:00:16.636Z,100.00
2023-03-15T23:02:47.000Z,100.00
2023-03-15T23:05:16.160Z,100.00
2023-03-15T23:07:45.018Z,100.00
2023-03-15T23:10:13.965Z,100.00
2023-03-15T23:12:42.854Z,100.00
2023-03-15T23:15:14.354Z,100.00
2023-03-15T23:17:47.031Z,100.00
2023-03-15T23:20:19.195Z,100.00
2023-03-15T23:22:49.893Z,100.00
2023-03-15T23:25:20.983Z,100.00
2023-03-15T23:27:50.309Z,100.00
2023-03-15T23:30:19.066Z,100.00
2023-03-15T23:32:49.421Z,100.00
2023-03-15T23:35:19.503Z,100.00
2023-03-15T23:37:48.444Z,100.00
2023-03-15T23:40:17.797Z,100.00
2023-03-15T23:42:46.454Z,100.00
2023-03-15T23:45:16.812Z,100.00
2023-03-15T23:47:46.000Z,100.00
2023-03-15T23:50:14.799Z,100.00
2023-03-15T23:52:44.700Z,100.00
2023-03-15T23:55:13.268Z,100.00
2023-03-15T23:57:42.108Z,100.00
